Home   Weather   USA   Leesburg   Past weeks
Flag for USA

Past Weather in Leesburg, Virginia, USA — Yesterday and Last 2 Weeks

Currently: 43 °F. Overcast. (Weather station: Leesburg / Godfrey, USA). See more current weather

Past Weather in Leesburg — Graph

°F

Leesburg Temperature Yesterday

Maximum temperature yesterday: 59 °F (at 3:15 pm)
Minimum temperature yesterday: 25 °F (at 6:15 am)
Average temperature yesterday: 42 °F

High & Low Weather Summary for the Past Weeks

 TemperatureHumidityPressure
High64 °F (Feb 24, 3:55 pm)100% (Feb 18, 6:55 am)30.65 "Hg (Feb 18, 6:55 am)
Low18 °F (Feb 21, 5:55 am)27% (Mar 3, 2:55 pm)29.71 "Hg (Feb 23, 1:55 pm)
Average37 °F70%30.16 "Hg
* Reported Feb 17 4:15 am — Mar 4 4:15 am, Leesburg. Weather by CustomWeather, © 2021

Note: Actual official high and low records may vary slightly from our data, if they occured in-between our weather recording intervals... More about our weather records

Leesburg Weather History for the Previous 24 Hours

Scroll right to see more
 ConditionsComfort  
Time TempWeatherWind HumidityBarometerVisibility
4:15 am
Thu, Mar 4
43 °FOvercast.10 mph66%29.92 "Hg10 mi
3:35 am43 °FOvercast.6 mph61%29.91 "Hg10 mi
3:15 am43 °FPassing clouds.5 mph61%29.91 "Hg10 mi
2:15 am41 °FPassing clouds.12 mph66%29.90 "Hg10 mi
1:35 am36 °FPassing clouds.7 mph75%29.91 "Hg10 mi
12:55 am45 °FClear.6 mph53%29.90 "Hg10 mi
12:35 am45 °FClear.5 mph53%29.89 "Hg10 mi
12:15 am41 °FClear.8 mph61%29.89 "Hg10 mi
11:35 pm
Wed, Mar 3
43 °FClear.7 mph57%29.91 "Hg10 mi
11:15 pm43 °FClear.7 mph57%29.91 "Hg10 mi
10:55 pm41 °FClear.6 mph66%29.91 "Hg10 mi
10:35 pm45 °FClear.6 mph53%29.91 "Hg10 mi
10:15 pm46 °FClear.6 mph50%29.92 "Hg10 mi
9:35 pm46 °FClear.7 mph46%29.92 "Hg10 mi
9:15 pm50 °FClear.5 mph40%29.91 "Hg10 mi
8:35 pm50 °FClear.7 mph40%29.90 "Hg10 mi
7:35 pm48 °FClear.7 mph43%29.90 "Hg10 mi
6:55 pm52 °FClear.6 mph38%29.90 "Hg10 mi
6:35 pm52 °FClear.8 mph38%29.89 "Hg10 mi
6:15 pm55 °FClear.7 mph33%29.88 "Hg10 mi
5:55 pm55 °FSunny.5 mph33%29.88 "Hg10 mi
5:35 pm57 °FSunny.9 mph31%29.88 "Hg10 mi
5:15 pm59 °FSunny.12 mph29%29.88 "Hg10 mi
4:55 pm59 °FSunny.10 mph29%29.88 "Hg10 mi
4:35 pm59 °FSunny.12 mph29%29.88 "Hg10 mi
4:15 pm59 °FSunny.7 mph27%29.88 "Hg10 mi
3:55 pm59 °FSunny.12 mph29%29.88 "Hg10 mi
3:35 pm59 °FSunny.8 mph29%29.88 "Hg10 mi
3:15 pm59 °FSunny.9 mph29%29.89 "Hg10 mi
2:55 pm57 °FSunny.5 mph27%29.89 "Hg10 mi
2:15 pm57 °FSunny.9 mph31%29.90 "Hg10 mi
1:35 pm55 °FSunny.9 mph31%29.93 "Hg10 mi
1:15 pm55 °FSunny.9 mph31%29.94 "Hg10 mi
12:55 pm54 °FSunny.10 mph33%29.95 "Hg10 mi
12:35 pm54 °FSunny.13 mph33%29.97 "Hg10 mi
12:15 pm54 °FSunny.8 mph33%29.97 "Hg10 mi
11:55 am52 °FSunny.16 mph32%29.98 "Hg10 mi
11:35 am50 °FSunny.10 mph35%29.99 "Hg10 mi
11:15 am50 °FSunny.13 mph32%30.00 "Hg10 mi
10:35 am46 °FSunny.12 mph37%30.01 "Hg10 mi
10:15 am45 °FSunny.12 mph42%30.02 "Hg10 mi
9:35 am41 °FSunny.5 mph57%30.04 "Hg10 mi
9:15 am37 °FSunny.3 mph65%30.04 "Hg10 mi
8:55 am34 °FSunny.No wind75%30.04 "Hg10 mi
8:35 am34 °FSunny.No wind75%30.04 "Hg10 mi
8:15 am32 °FSunny.No wind75%30.04 "Hg10 mi
7:55 am30 °FSunny.5 mph80%30.03 "Hg10 mi
7:35 am27 °FSunny.5 mph86%30.03 "Hg10 mi
7:15 am27 °FSunny.3 mph86%30.03 "Hg10 mi
6:55 am27 °FSunny.No wind86%30.03 "Hg10 mi
6:35 am27 °FClear.3 mph86%30.03 "Hg10 mi
6:15 am25 °FClear.No wind86%30.03 "Hg10 mi
5:55 am27 °FClear.5 mph80%30.03 "Hg10 mi
5:35 am27 °FClear.6 mph86%30.03 "Hg10 mi
5:15 am27 °FClear.No wind86%30.04 "Hg10 mi
4:55 am28 °FClear.No wind80%30.04 "Hg10 mi
4:35 am28 °FClear.No wind80%30.04 "Hg10 mi
4:15 am27 °FClear.No wind80%30.04 "Hg10 mi
Weather by CustomWeather, © 2021

See weather overview